Time;durP1;ratioP1;P1;durP2;ratioP2;P2;SDS_P1;SDS_P2;PMS_P1;PMS_P2;Temp;Humidity;BMP_temperature;BMP_pressure;BME280_temperature;BME280_humidity;BME280_pressure;Samples;Min_cycle;Max_cycle;Signal;HPM_P1;HPM_P2
2021/08/09 00:02:08;;;;;;;;;32.60;30.40;;;;;28.20;69.37;100872.72;4935881;29;8872;-74
2021/08/09 00:05:05;;;;;;;;;32.00;29.60;;;;;28.15;69.27;100863.94;4935670;29;8857;-73
2021/08/09 00:08:01;;;;;;;;;35.60;31.80;;;;;28.20;69.49;100864.19;4935325;29;8841;-74
2021/08/09 00:10:57;;;;;;;;;33.80;29.40;;;;;28.23;69.21;100860.47;4935929;29;9057;-74
2021/08/09 00:13:53;;;;;;;;;24.60;22.20;;;;;28.26;69.03;100855.91;4936003;29;8837;-74
2021/08/09 00:16:49;;;;;;;;;33.20;31.40;;;;;28.03;68.59;100854.09;4949633;28;8882;-74
2021/08/09 00:19:44;;;;;;;;;29.20;28.80;;;;;27.70;69.27;100853.38;4955584;28;8854;-75
2021/08/09 00:22:40;;;;;;;;;24.60;24.60;;;;;27.48;70.11;100852.28;4955792;28;8835;-75
2021/08/09 00:25:35;;;;;;;;;34.40;30.60;;;;;27.53;70.92;100846.03;4953893;28;8892;-72
2021/08/09 00:28:31;;;;;;;;;32.00;30.80;;;;;27.54;70.92;100839.94;4954962;28;8881;-73
2021/08/09 00:31:27;;;;;;;;;27.80;27.60;;;;;27.58;71.14;100843.47;4956011;28;9616;-73
2021/08/09 00:34:23;;;;;;;;;28.20;28.20;;;;;27.38;70.02;100845.63;4953918;28;8835;-73
2021/08/09 00:37:18;;;;;;;;;28.80;28.40;;;;;27.40;71.46;100846.75;4955003;28;8838;-73
2021/08/09 00:40:14;;;;;;;;;32.20;31.00;;;;;27.37;70.71;100841.16;4954514;28;8846;-73
2021/08/09 00:43:09;;;;;;;;;32.60;29.60;;;;;27.52;70.94;100839.56;4954967;28;8827;-72
2021/08/09 00:46:05;;;;;;;;;31.40;30.00;;;;;27.47;70.34;100842.94;4955728;28;8843;-73
2021/08/09 00:49:00;;;;;;;;;34.40;31.60;;;;;27.40;70.56;100841.09;4954220;28;8961;-73
2021/08/09 00:51:56;;;;;;;;;36.60;30.20;;;;;27.49;70.81;100839.66;4941789;28;8839;-73
2021/08/09 00:54:52;;;;;;;;;32.00;30.40;;;;;27.30;70.92;100835.69;4955083;28;8891;-73
2021/08/09 00:57:47;;;;;;;;;35.20;30.40;;;;;27.41;71.31;100833.38;4954738;28;8874;-73
2021/08/09 01:00:43;;;;;;;;;44.80;38.00;;;;;27.14;70.68;100833.59;4953929;29;8835;-73
2021/08/09 01:03:38;;;;;;;;;39.80;34.80;;;;;27.18;72.03;100839.22;4954364;29;8937;-74
2021/08/09 01:06:34;;;;;;;;;39.20;32.20;;;;;27.19;71.90;100837.97;4953682;29;8843;-73
2021/08/09 01:09:53;;;;;;;;;39.60;33.20;;;;;27.28;71.12;100830.41;4954896;29;8854;-73
2021/08/09 01:13:17;;;;;;;;;38.20;31.80;;;;;27.21;70.94;100835.47;4954467;29;8851;-73
2021/08/09 01:16:13;;;;;;;;;42.20;36.60;;;;;27.22;71.56;100829.38;4944561;29;8874;-73
2021/08/09 01:19:40;;;;;;;;;40.40;34.40;;;;;27.48;71.09;100836.03;4934843;29;8825;-73
2021/08/09 01:23:01;;;;;;;;;49.00;39.00;;;;;27.50;70.64;100835.56;4921715;29;8844;-73
2021/08/09 01:26:21;;;;;;;;;39.00;34.40;;;;;27.58;70.58;100834.16;4934698;29;8853;-73
2021/08/09 01:29:44;;;;;;;;;44.60;35.40;;;;;27.48;70.95;100836.03;4935284;29;8913;-74
2021/08/09 01:32:43;;;;;;;;;43.80;34.80;;;;;27.52;70.76;100841.59;4934514;29;8859;-73
2021/08/09 01:35:40;;;;;;;;;44.40;37.40;;;;;27.54;70.64;100837.09;4934243;29;8856;-73
2021/08/09 01:38:37;;;;;;;;;41.80;35.20;;;;;27.65;70.18;100839.66;4922710;29;8837;-73
2021/08/09 01:41:33;;;;;;;;;37.00;33.60;;;;;27.60;70.16;100837.34;4934805;29;8872;-73
2021/08/09 01:44:30;;;;;;;;;36.60;32.60;;;;;27.43;70.66;100839.38;4936665;29;8924;-73
2021/08/09 01:47:25;;;;;;;;;45.60;35.40;;;;;27.39;71.35;100838.69;4934383;29;8841;-73
2021/08/09 01:50:22;;;;;;;;;30.80;29.20;;;;;27.08;71.34;100836.19;4934934;29;9758;-74
2021/08/09 01:53:18;;;;;;;;;38.00;33.80;;;;;26.97;72.80;100835.59;4934256;29;8849;-73
2021/08/09 01:56:14;;;;;;;;;31.40;30.20;;;;;26.80;72.96;100840.44;4922368;29;9595;-74
2021/08/09 01:59:10;;;;;;;;;31.20;30.20;;;;;26.59;73.48;100838.03;4935249;29;8853;-73
2021/08/09 02:02:05;;;;;;;;;30.80;29.40;;;;;26.73;73.56;100846.25;4934119;29;9583;-73
2021/08/09 02:05:12;;;;;;;;;35.80;32.80;;;;;26.74;73.46;100842.19;4938318;29;8841;-74
2021/08/09 02:08:11;;;;;;;;;32.00;31.00;;;;;26.86;72.81;100849.22;4938200;29;8837;-74
2021/08/09 02:11:17;;;;;;;;;34.20;31.60;;;;;26.93;72.67;100845.44;4937778;29;8841;-73
2021/08/09 02:14:15;;;;;;;;;34.60;31.20;;;;;27.15;71.81;100858.72;4937569;29;8871;-73
2021/08/09 02:17:15;;;;;;;;;30.00;29.60;;;;;27.09;72.14;100854.81;4955657;28;8838;-73
2021/08/09 02:20:20;;;;;;;;;33.00;31.20;;;;;27.06;72.13;100855.66;4957233;28;8878;-73
2021/08/09 02:23:20;;;;;;;;;32.80;31.20;;;;;27.17;71.83;100861.13;4957856;28;8851;-73
2021/08/09 02:26:26;;;;;;;;;33.60;31.40;;;;;27.15;71.98;100852.25;4956372;28;8870;-73
2021/08/09 02:29:28;;;;;;;;;32.80;31.00;;;;;27.18;71.73;100857.03;4957849;28;8992;-73
2021/08/09 02:32:28;;;;;;;;;36.00;32.80;;;;;27.05;72.03;100864.63;4956342;28;8954;-72
2021/08/09 02:35:26;;;;;;;;;37.80;34.00;;;;;27.06;71.84;100860.56;4956061;28;8827;-72
2021/08/09 02:38:23;;;;;;;;;31.20;30.20;;;;;26.77;72.58;100858.34;4943753;28;9680;-73
2021/08/09 02:41:19;;;;;;;;;31.20;29.60;;;;;26.87;72.84;100854.47;4956753;28;8847;-73
2021/08/09 02:44:15;;;;;;;;;31.00;30.00;;;;;26.84;72.57;100865.91;4956065;28;8842;-73
2021/08/09 02:47:13;;;;;;;;;29.80;29.20;;;;;26.79;72.85;100863.56;4956705;28;8855;-74
2021/08/09 02:50:11;;;;;;;;;32.20;30.80;;;;;26.81;72.75;100863.91;4957052;28;8941;-73
2021/08/09 02:53:07;;;;;;;;;31.40;29.80;;;;;26.90;72.49;100866.97;4956118;28;8835;-73
2021/08/09 02:56:03;;;;;;;;;26.80;26.40;;;;;27.02;72.13;100865.50;4957018;28;8858;-73
2021/08/09 02:58:58;;;;;;;;;27.80;27.80;;;;;27.04;72.09;100863.03;4943426;28;8850;-73
2021/08/09 03:01:54;;;;;;;;;27.80;27.60;;;;;26.78;72.38;100861.97;4956166;28;8851;-73
2021/08/09 03:04:51;;;;;;;;;25.60;25.20;;;;;26.84;71.98;100863.06;4957155;28;8967;-73
2021/08/09 03:07:48;;;;;;;;;22.20;22.20;;;;;26.89;71.94;100863.31;4936278;29;8833;-74
2021/08/09 03:10:43;;;;;;;;;25.60;25.60;;;;;26.82;72.17;100860.63;4936540;29;8837;-71
2021/08/09 03:13:45;;;;;;;;;26.40;26.20;;;;;26.58;73.25;100870.47;4936987;29;8919;-72
2021/08/09 03:16:44;;;;;;;;;27.60;27.00;;;;;26.74;72.65;100862.03;4950693;28;8847;-72
2021/08/09 03:19:41;;;;;;;;;24.80;24.80;;;;;26.77;72.54;100852.66;4956939;28;8831;-72
2021/08/09 03:22:37;;;;;;;;;24.00;24.00;;;;;26.73;72.34;100853.97;4957554;28;8884;-72
2021/08/09 03:25:32;;;;;;;;;24.80;24.80;;;;;26.62;72.07;100848.53;4956665;28;8862;-71
2021/08/09 03:28:28;;;;;;;;;21.20;21.20;;;;;26.71;71.95;100862.13;4956325;28;8842;-72
2021/08/09 03:31:24;;;;;;;;;23.60;23.60;;;;;26.78;72.12;100871.28;4955339;28;8901;-72
2021/08/09 03:34:20;;;;;;;;;27.40;27.40;;;;;26.67;72.35;100855.72;4956154;28;8869;-73
2021/08/09 03:37:15;;;;;;;;;24.80;24.80;;;;;26.42;73.51;100867.59;4952672;29;8880;-73
2021/08/09 03:40:11;;;;;;;;;23.40;23.40;;;;;26.51;72.76;100868.59;4928469;29;9768;-73
2021/08/09 03:43:08;;;;;;;;;26.80;26.80;;;;;26.76;72.12;100875.78;4938605;29;9003;-73
2021/08/09 03:46:04;;;;;;;;;25.80;25.80;;;;;26.87;71.47;100871.47;4938564;29;8857;-73
2021/08/09 03:49:04;;;;;;;;;30.20;28.40;;;;;26.80;71.63;100880.16;4936622;29;8845;-73
2021/08/09 03:51:59;;;;;;;;;25.40;25.40;;;;;26.60;72.00;100879.34;4937956;29;8841;-73
2021/08/09 03:54:55;;;;;;;;;24.00;24.00;;;;;26.83;71.94;100875.63;4936208;29;8872;-73
2021/08/09 03:57:51;;;;;;;;;25.80;25.80;;;;;27.01;71.04;100875.25;4937078;29;8935;-72
2021/08/09 04:00:46;;;;;;;;;27.80;27.80;;;;;27.09;70.79;100882.41;4935498;29;8868;-72
2021/08/09 04:03:15;;;;;;;;;24.60;24.60;;;;;27.03;70.88;100884.13;4920490;29;8853;-73
2021/08/09 04:05:46;;;;;;;;;30.20;29.60;;;;;26.81;71.03;100878.91;4938169;29;8853;-73
2021/08/09 04:08:13;;;;;;;;;27.80;27.80;;;;;26.88;72.01;100870.25;4937128;29;8845;-73
2021/08/09 04:11:09;;;;;;;;;29.40;29.00;;;;;26.56;72.93;100879.44;4937152;29;8859;-73
2021/08/09 04:13:37;;;;;;;;;31.20;30.20;;;;;26.40;72.62;100882.19;4921391;29;8853;-72
2021/08/09 04:16:33;;;;;;;;;30.40;29.60;;;;;26.46;73.45;100883.31;4923399;29;8876;-73
2021/08/09 04:19:28;;;;;;;;;29.60;29.20;;;;;26.73;72.34;100873.81;4936250;29;8852;-72
2021/08/09 04:22:24;;;;;;;;;28.60;28.20;;;;;26.75;71.99;100872.13;4935715;29;8891;-72
2021/08/09 04:24:52;;;;;;;;;32.20;30.80;;;;;26.81;72.03;100870.41;4936074;29;8921;-72
2021/08/09 04:27:34;;;;;;;;;31.60;29.80;;;;;26.71;72.42;100871.44;4935128;29;8855;-71
2021/08/09 04:30:30;;;;;;;;;30.80;29.80;;;;;26.87;71.92;100877.16;4936538;29;8830;-72
2021/08/09 04:33:25;;;;;;;;;27.40;27.40;;;;;26.97;71.77;100877.34;4935800;29;8880;-73
2021/08/09 04:36:21;;;;;;;;;33.20;29.80;;;;;27.05;71.65;100873.16;4934720;29;8835;-72
2021/08/09 04:38:50;;;;;;;;;35.40;32.40;;;;;26.98;71.53;100870.44;4935776;28;8951;-72
2021/08/09 04:41:40;;;;;;;;;32.40;31.00;;;;;26.94;71.97;100881.09;4903715;29;8859;-73
2021/08/09 04:44:37;;;;;;;;;32.40;31.00;;;;;27.12;71.18;100875.81;4916063;29;8951;-73
2021/08/09 04:47:33;;;;;;;;;35.40;32.20;;;;;26.98;71.40;100878.94;4918391;29;8969;-72
2021/08/09 04:50:28;;;;;;;;;34.20;31.40;;;;;26.93;71.10;100876.66;4916233;29;8886;-73
2021/08/09 04:53:25;;;;;;;;;34.20;30.60;;;;;27.11;71.36;100874.22;4916565;29;8851;-74
2021/08/09 04:56:21;;;;;;;;;33.00;30.80;;;;;27.33;70.64;100880.22;4904058;29;9005;-73
2021/08/09 04:59:17;;;;;;;;;35.00;32.20;;;;;27.31;70.46;100874.97;4916321;29;8883;-73
2021/08/09 05:02:12;;;;;;;;;35.20;32.40;;;;;27.51;70.02;100874.88;4916460;29;8973;-73
2021/08/09 05:05:08;;;;;;;;;37.80;34.00;;;;;27.64;69.56;100875.00;4927945;29;8838;-73
2021/08/09 05:07:37;;;;;;;;;35.80;32.80;;;;;27.74;69.29;100871.09;4936296;29;8953;-73
2021/08/09 05:10:32;;;;;;;;;33.00;31.00;;;;;27.91;68.91;100875.53;4935143;29;8862;-73
2021/08/09 05:13:14;;;;;;;;;38.60;34.00;;;;;27.87;68.68;100871.97;4936153;29;8850;-74
2021/08/09 05:16:10;;;;;;;;;39.00;34.20;;;;;27.96;68.51;100880.66;4917482;29;8873;-74
2021/08/09 05:19:06;;;;;;;;;38.40;34.40;;;;;28.03;68.19;100878.88;4935840;29;8881;-73
2021/08/09 05:21:35;;;;;;;;;40.60;35.60;;;;;28.03;68.29;100876.84;4935789;29;8904;-74
2021/08/09 05:24:31;;;;;;;;;44.00;37.00;;;;;27.98;68.45;100880.22;4921810;29;8849;-74
2021/08/09 05:27:26;;;;;;;;;40.80;36.00;;;;;27.91;68.63;100881.22;4934239;29;8999;-74
2021/08/09 05:30:22;;;;;;;;;42.00;36.60;;;;;27.90;68.15;100878.81;4934274;29;8881;-72
2021/08/09 05:33:17;;;;;;;;;40.40;34.80;;;;;28.04;68.49;100875.59;4935056;29;8859;-72
2021/08/09 05:36:14;;;;;;;;;40.20;34.80;;;;;28.12;68.20;100882.69;4935027;29;8865;-73
2021/08/09 05:39:10;;;;;;;;;36.80;33.80;;;;;28.26;68.08;100882.28;4936329;29;9518;-74
2021/08/09 05:42:06;;;;;;;;;40.20;35.40;;;;;28.43;67.16;100888.75;4937748;29;8848;-72
2021/08/09 05:45:10;;;;;;;;;35.40;32.80;;;;;28.47;66.90;100886.63;4938024;29;8888;-73
2021/08/09 05:48:06;;;;;;;;;40.80;35.80;;;;;28.61;66.87;100893.16;4938502;29;8861;-72
2021/08/09 05:51:02;;;;;;;;;41.80;35.80;;;;;28.68;67.06;100893.75;4938509;29;8872;-72
2021/08/09 05:53:59;;;;;;;;;44.00;37.80;;;;;28.86;66.20;100889.56;4938728;29;8891;-72
2021/08/09 05:56:55;;;;;;;;;61.00;49.25;;;;;28.88;65.36;100884.22;4941101;29;9684;-74
2021/08/09 05:59:37;;;;;;;;;41.60;36.40;;;;;29.20;64.54;100883.25;4938065;29;8860;-74
2021/08/09 06:02:40;;;;;;;;;50.80;42.80;;;;;29.25;64.41;100883.50;4942925;29;8860;-74
2021/08/09 06:05:38;;;;;;;;;60.00;49.00;;;;;29.14;63.80;100890.75;4923674;29;8856;-74
2021/08/09 06:08:35;;;;;;;;;57.25;47.50;;;;;28.77;65.42;100884.56;4936472;29;8848;-73
2021/08/09 06:11:31;;;;;;;;;52.40;43.60;;;;;29.05;65.54;100880.06;4942589;29;8863;-71
2021/08/09 06:14:26;;;;;;;;;57.75;48.00;;;;;29.26;64.56;100881.44;4937465;29;8924;-72
2021/08/09 06:17:22;;;;;;;;;49.00;41.60;;;;;29.41;64.06;100882.56;4933664;29;8884;-72
2021/08/09 06:20:17;;;;;;;;;57.25;46.50;;;;;29.01;63.68;100880.19;4937739;29;8864;-72
2021/08/09 06:22:46;;;;;;;;;58.25;47.00;;;;;29.09;63.96;100886.44;4938264;29;8833;-72
2021/08/09 06:25:43;;;;;;;;;49.20;42.00;;;;;29.31;64.22;100887.38;4936924;29;8865;-72
2021/08/09 06:28:40;;;;;;;;;46.60;40.00;;;;;29.24;64.48;100887.59;4937436;29;8876;-72
2021/08/09 06:31:35;;;;;;;;;50.00;42.20;;;;;29.67;63.40;100891.13;4919861;29;8876;-72
2021/08/09 06:34:31;;;;;;;;;43.80;38.00;;;;;29.74;62.88;100893.72;4936388;29;8837;-72
2021/08/09 06:37:26;;;;;;;;;45.20;38.80;;;;;29.82;62.57;100903.63;4936486;29;8875;-72
2021/08/09 06:40:22;;;;;;;;;45.60;39.20;;;;;29.94;62.32;100896.31;4936804;29;9023;-73
2021/08/09 06:43:18;;;;;;;;;45.00;36.60;;;;;30.15;61.45;100892.75;4933081;29;8837;-73
2021/08/09 06:46:00;;;;;;;;;47.60;40.40;;;;;30.26;61.59;100895.22;4931355;29;8868;-72
2021/08/09 06:48:57;;;;;;;;;47.40;40.20;;;;;30.20;60.76;100897.06;4937543;29;8876;-73
2021/08/09 06:51:52;;;;;;;;;45.40;38.60;;;;;30.18;61.99;100901.19;4937143;29;8857;-73
2021/08/09 06:54:49;;;;;;;;;45.80;39.40;;;;;29.99;59.77;100901.44;4933978;29;8926;-72
2021/08/09 06:57:46;;;;;;;;;39.80;35.00;;;;;30.34;58.27;100903.06;4929975;29;8852;-72
2021/08/09 07:00:42;;;;;;;;;42.80;37.00;;;;;30.39;59.75;100901.69;4932743;29;8927;-72
2021/08/09 07:03:10;;;;;;;;;52.40;44.20;;;;;30.15;59.65;100898.47;4932857;29;8857;-72
2021/08/09 07:06:07;;;;;;;;;51.00;43.40;;;;;30.57;59.72;100901.81;4931527;29;8919;-72
2021/08/09 07:09:04;;;;;;;;;59.25;49.00;;;;;30.85;59.92;100904.91;4932488;29;8987;-73
2021/08/09 07:11:59;;;;;;;;;42.80;36.40;;;;;31.00;57.69;100906.72;4932154;29;9618;-73
2021/08/09 07:14:55;;;;;;;;;37.20;33.20;;;;;31.12;57.66;100907.88;4919783;29;9561;-73
2021/08/09 07:17:50;;;;;;;;;33.20;31.20;;;;;31.26;56.74;100906.56;4935134;29;8868;-72
2021/08/09 07:20:46;;;;;;;;;42.40;35.80;;;;;31.39;58.11;100912.97;4933886;29;8936;-72
2021/08/09 07:23:42;;;;;;;;;35.80;32.80;;;;;31.32;56.73;100907.56;4934786;29;8951;-72
2021/08/09 07:26:11;;;;;;;;;33.60;31.20;;;;;31.23;57.15;100911.16;4935887;29;8911;-73
2021/08/09 07:29:06;;;;;;;;;48.40;41.40;;;;;31.45;57.81;100905.38;4935553;29;8899;-72
2021/08/09 07:31:34;;;;;;;;;41.80;33.80;;;;;31.68;57.30;100911.81;4933132;29;8868;-72
2021/08/09 07:34:30;;;;;;;;;36.00;33.00;;;;;31.78;56.33;100899.16;4934593;29;8837;-73
2021/08/09 07:37:26;;;;;;;;;39.20;34.80;;;;;31.86;56.39;100899.66;4917149;29;8938;-71
2021/08/09 07:40:21;;;;;;;;;41.20;35.80;;;;;31.76;56.92;100896.75;4909775;29;8875;-72
2021/08/09 07:43:17;;;;;;;;;36.20;33.20;;;;;32.02;54.71;100910.78;4918097;29;8965;-71
2021/08/09 07:45:53;;;;;;;;;25.40;25.40;;;;;32.21;54.33;100908.75;4917961;29;8843;-71
2021/08/09 07:48:21;;;;;;;;;28.00;27.40;;;;;32.13;52.85;100911.13;4918412;29;8882;-72
2021/08/09 07:50:49;;;;;;;;;30.00;29.40;;;;;32.07;53.89;100910.19;4917880;29;8844;-72
2021/08/09 07:53:45;;;;;;;;;22.20;22.20;;;;;32.24;53.55;100914.31;4904044;29;8867;-72
2021/08/09 07:56:40;;;;;;;;;24.00;24.00;;;;;32.57;52.71;100907.97;4917387;29;8855;-71
2021/08/09 07:59:36;;;;;;;;;28.00;27.80;;;;;32.51;53.13;100902.13;4917327;29;8859;-72
2021/08/09 08:02:32;;;;;;;;;40.60;34.40;;;;;32.55;54.06;100914.19;4916449;29;8863;-71
2021/08/09 08:05:27;;;;;;;;;38.60;34.20;;;;;31.72;57.24;100904.66;4916614;29;8973;-72
2021/08/09 08:08:23;;;;;;;;;37.80;33.80;;;;;32.38;55.56;100912.13;4916457;29;8871;-72
2021/08/09 08:11:18;;;;;;;;;40.60;35.20;;;;;32.15;56.35;100911.44;4933309;29;8856;-72
2021/08/09 08:14:14;;;;;;;;;45.00;38.80;;;;;32.14;56.30;100917.66;4935069;28;8883;-72
2021/08/09 08:17:10;;;;;;;;;44.20;37.60;;;;;32.19;55.77;100914.94;4933190;28;9075;-73
2021/08/09 08:20:06;;;;;;;;;38.00;33.40;;;;;32.49;54.95;100913.22;4932262;28;8840;-72
2021/08/09 08:22:35;;;;;;;;;40.80;35.80;;;;;32.12;54.47;100917.31;4933426;28;8985;-72
2021/08/09 08:25:32;;;;;;;;;32.40;30.80;;;;;32.23;54.67;100927.03;4932532;28;8995;-72
2021/08/09 08:28:27;;;;;;;;;35.80;32.80;;;;;32.89;52.85;100924.50;4932081;28;8847;-71
2021/08/09 08:31:23;;;;;;;;;41.00;35.40;;;;;32.78;53.92;100921.31;4932690;28;8853;-73
2021/08/09 08:34:19;;;;;;;;;46.00;39.80;;;;;33.25;53.37;100937.13;4930865;29;8955;-72
2021/08/09 08:37:14;;;;;;;;;47.40;40.20;;;;;33.35;52.13;100926.41;4932264;28;9657;-72
2021/08/09 08:40:10;;;;;;;;;45.20;38.60;;;;;33.10;52.61;100927.63;4911734;29;8862;-72
2021/08/09 08:43:18;;;;;;;;;39.20;34.80;;;;;33.18;51.55;100923.94;4911171;29;8973;-73
2021/08/09 08:46:14;;;;;;;;;44.20;38.20;;;;;32.87;53.01;100920.53;4915864;29;8901;-71
2021/08/09 08:49:14;;;;;;;;;30.80;29.60;;;;;33.00;51.95;100923.22;4919547;29;8906;-71
2021/08/09 08:52:10;;;;;;;;;37.60;33.80;;;;;33.43;52.45;100914.19;4925030;29;8855;-71
2021/08/09 08:55:06;;;;;;;;;36.00;33.00;;;;;33.49;51.17;100910.63;4921057;29;8869;-71
2021/08/09 08:58:01;;;;;;;;;36.00;33.20;;;;;33.60;50.58;100923.16;4920318;29;8821;-70
2021/08/09 09:00:57;;;;;;;;;34.20;31.80;;;;;33.70;50.05;100921.84;4908654;29;8865;-70
2021/08/09 09:03:52;;;;;;;;;40.80;36.00;;;;;33.29;51.22;100911.97;4918714;29;8848;-72
2021/08/09 09:06:55;;;;;;;;;40.00;35.00;;;;;33.04;51.65;100918.88;4919028;29;8848;-71
2021/08/09 09:09:50;;;;;;;;;40.60;36.00;;;;;32.89;52.94;100924.50;4918124;29;8884;-70
2021/08/09 09:13:15;;;;;;;;;38.00;34.20;;;;;32.12;53.94;100920.97;4920169;29;8845;-72
2021/08/09 09:16:13;;;;;;;;;43.00;36.60;;;;;32.39;53.99;100930.88;4924631;29;8955;-71
2021/08/09 09:19:08;;;;;;;;;41.80;36.20;;;;;32.48;53.25;100922.28;4921245;29;8896;-72
2021/08/09 09:22:09;;;;;;;;;41.20;36.00;;;;;32.69;52.70;100918.47;4924619;29;8903;-71
2021/08/09 09:25:05;;;;;;;;;36.20;33.00;;;;;33.17;52.92;100921.56;4924887;29;8868;-71
2021/08/09 09:28:29;;;;;;;;;35.00;31.80;;;;;33.63;51.67;100915.66;4927514;29;8872;-71
2021/08/09 09:31:29;;;;;;;;;34.80;32.40;;;;;33.60;51.34;100916.66;4922457;29;8882;-73
2021/08/09 09:34:25;;;;;;;;;44.80;37.60;;;;;33.67;50.68;100916.28;4922980;29;8867;-72
2021/08/09 09:37:28;;;;;;;;;36.00;33.20;;;;;33.92;49.81;100918.72;4921183;29;8853;-72
2021/08/09 09:40:05;;;;;;;;;38.40;34.80;;;;;33.90;49.19;100915.53;4921807;29;8944;-73
2021/08/09 09:42:38;;;;;;;;;38.60;34.00;;;;;33.97;48.86;100920.91;4922384;29;8931;-73
2021/08/09 09:45:34;;;;;;;;;35.40;32.80;;;;;33.95;48.86;100906.25;4919736;29;8857;-74
2021/08/09 09:48:39;;;;;;;;;37.80;34.20;;;;;33.93;48.02;100917.41;4921614;29;9011;-74
2021/08/09 09:51:13;;;;;;;;;36.00;33.20;;;;;34.01;47.48;100904.28;4921915;29;9884;-73
2021/08/09 09:54:08;;;;;;;;;39.20;34.80;;;;;33.72;48.84;100915.59;4911679;29;8914;-74
2021/08/09 09:57:06;;;;;;;;;42.40;37.00;;;;;33.70;49.58;100913.22;4924765;29;8844;-75
2021/08/09 09:59:34;;;;;;;;;45.60;38.20;;;;;34.05;49.58;100909.03;4922063;29;8908;-75
2021/08/09 10:02:03;;;;;;;;;47.00;38.60;;;;;33.57;49.21;100903.25;4906769;29;8892;-74
2021/08/09 10:04:44;;;;;;;;;51.80;43.40;;;;;33.59;50.00;100900.72;4922231;29;8912;-74
2021/08/09 10:07:30;;;;;;;;;46.40;39.80;;;;;33.50;50.62;100892.94;4919856;29;8899;-72
2021/08/09 10:10:00;;;;;;;;;37.40;33.60;;;;;33.35;51.01;100889.94;4906271;29;8869;-74
2021/08/09 10:12:47;;;;;;;;;47.00;39.20;;;;;32.67;51.95;100898.13;4922084;29;8895;-74
2021/08/09 10:15:43;;;;;;;;;41.40;36.20;;;;;33.02;50.99;100898.53;4920024;29;8879;-73
2021/08/09 10:18:48;;;;;;;;;34.20;31.80;;;;;33.16;50.89;100897.84;4922851;29;8860;-73
2021/08/09 10:21:44;;;;;;;;;37.60;32.40;;;;;33.01;51.76;100894.06;4921421;29;8849;-73
2021/08/09 10:24:42;;;;;;;;;40.40;36.00;;;;;32.79;53.31;100890.59;4919441;29;9007;-73
2021/08/09 10:27:46;;;;;;;;;32.00;30.40;;;;;32.68;50.67;100901.78;4920900;29;8915;-73
2021/08/09 10:30:42;;;;;;;;;24.20;24.20;;;;;32.72;51.28;100891.72;4920417;29;8867;-73
2021/08/09 10:33:49;;;;;;;;;33.40;30.40;;;;;32.49;51.30;100886.66;4920656;29;8836;-74
2021/08/09 10:37:08;;;;;;;;;32.60;31.00;;;;;32.34;53.30;100897.97;4919575;29;8832;-74
2021/08/09 10:40:05;;;;;;;;;36.40;33.00;;;;;32.27;52.95;100896.19;4923084;29;8896;-74
2021/08/09 10:43:01;;;;;;;;;27.40;27.40;;;;;32.16;53.32;100889.34;4921427;29;9590;-74
2021/08/09 10:45:56;;;;;;;;;31.60;30.20;;;;;32.06;53.54;100894.28;4917727;29;8980;-74
2021/08/09 10:48:52;;;;;;;;;30.00;29.20;;;;;32.14;53.96;100898.41;4917897;29;8852;-74
2021/08/09 10:51:51;;;;;;;;;28.60;28.40;;;;;32.09;54.31;100905.56;4917933;29;8836;-74
2021/08/09 10:54:46;;;;;;;;;32.20;31.00;;;;;31.91;54.02;100899.03;4916869;29;8824;-74
2021/08/09 10:57:43;;;;;;;;;34.00;31.00;;;;;31.84;54.07;100902.19;4926730;29;8841;-73
2021/08/09 11:00:38;;;;;;;;;30.80;29.60;;;;;31.92;54.22;100907.13;4918741;29;8873;-72
2021/08/09 11:03:34;;;;;;;;;37.40;34.00;;;;;31.86;54.94;100911.88;4919519;29;9000;-74
2021/08/09 11:06:37;;;;;;;;;33.20;31.20;;;;;31.87;54.53;100912.66;4906350;29;9599;-73
2021/08/09 11:09:50;;;;;;;;;38.20;33.00;;;;;31.68;55.18;100918.31;4919939;29;8879;-74
2021/08/09 11:13:00;;;;;;;;;33.20;31.00;;;;;31.61;55.96;100895.75;4919460;29;9766;-73
2021/08/09 11:16:00;;;;;;;;;32.00;30.40;;;;;31.81;55.79;100904.72;4907067;29;9694;-74
2021/08/09 11:18:57;;;;;;;;;29.00;29.00;;;;;31.70;57.13;100910.06;4917480;29;8849;-73
2021/08/09 11:21:55;;;;;;;;;30.20;27.20;;;;;31.54;56.87;100913.19;4919549;29;8876;-73
2021/08/09 11:24:51;;;;;;;;;21.80;21.80;;;;;31.27;56.49;100908.94;4918639;29;8829;-74
2021/08/09 11:28:11;;;;;;;;;28.40;28.00;;;;;30.58;59.04;100905.47;4919913;29;8840;-74
2021/08/09 11:31:09;;;;;;;;;25.00;25.00;;;;;30.77;58.62;100907.22;4920033;29;8852;-72
2021/08/09 11:34:06;;;;;;;;;29.00;28.00;;;;;30.77;60.53;100907.22;4919734;29;8986;-72
2021/08/09 11:37:02;;;;;;;;;30.20;29.00;;;;;30.72;65.79;100900.03;4919803;29;8854;-74
2021/08/09 11:39:58;;;;;;;;;30.40;29.40;;;;;30.19;69.54;100904.81;4914581;29;8855;-74
2021/08/09 11:42:53;;;;;;;;;33.20;30.80;;;;;30.00;70.53;100915.25;4926619;29;8855;-73
2021/08/09 11:45:51;;;;;;;;;36.20;33.00;;;;;29.90;71.58;100920.06;4928173;29;9345;-74
2021/08/09 11:48:26;;;;;;;;;31.00;30.00;;;;;29.49;71.89;100920.97;4931794;29;8881;-74
2021/08/09 11:51:28;;;;;;;;;34.20;31.80;;;;;29.51;71.24;100924.19;4942058;28;8925;-73
2021/08/09 11:54:37;;;;;;;;;31.00;29.80;;;;;29.03;73.56;100926.06;4928164;29;8883;-73
2021/08/09 11:57:40;;;;;;;;;33.20;31.20;;;;;29.14;74.96;100933.47;4925539;29;8912;-73
2021/08/09 12:00:41;;;;;;;;;36.40;33.40;;;;;29.06;74.73;100928.03;4927732;29;8882;-73
2021/08/09 12:03:36;;;;;;;;;40.00;33.60;;;;;29.14;74.96;100919.25;4927369;29;8897;-73
2021/08/09 12:06:33;;;;;;;;;35.40;32.40;;;;;28.77;74.38;100916.66;4925559;29;8894;-72
2021/08/09 12:09:42;;;;;;;;;38.00;33.60;;;;;28.78;80.39;100914.59;4917264;29;8995;-73
2021/08/09 12:12:39;;;;;;;;;39.20;34.80;;;;;28.97;76.70;100916.47;4927080;29;8836;-72
2021/08/09 12:15:34;;;;;;;;;39.40;34.40;;;;;28.99;77.03;100911.16;4928054;29;8864;-71
2021/08/09 12:18:30;;;;;;;;;35.40;32.60;;;;;29.10;75.67;100899.44;4927009;29;8871;-72
2021/08/09 12:21:35;;;;;;;;;38.80;34.80;;;;;29.06;76.06;100899.56;4925132;29;8867;-72
2021/08/09 12:24:30;;;;;;;;;3.40;3.00;;;;;29.20;75.75;100894.66;4928174;29;8888;-72
2021/08/09 12:27:29;;;;;;;;;43.80;37.60;;;;;29.15;77.11;100904.56;4928231;28;8859;-72
2021/08/09 12:30:25;;;;;;;;;42.80;37.00;;;;;29.21;77.64;100910.47;4927326;29;8898;-73
2021/08/09 12:33:21;;;;;;;;;38.40;34.60;;;;;29.07;78.06;100901.16;4934480;29;8874;-73
2021/08/09 12:36:19;;;;;;;;;44.00;37.80;;;;;29.08;77.19;100907.63;4926097;29;8875;-74
2021/08/09 12:39:35;;;;;;;;;38.60;34.00;;;;;29.13;75.49;100897.72;4935594;28;8856;-74
2021/08/09 12:42:30;;;;;;;;;38.80;34.00;;;;;29.25;75.99;100902.63;4930902;29;8877;-74
2021/08/09 12:45:26;;;;;;;;;46.40;39.40;;;;;29.32;77.28;100897.50;4934023;29;8864;-74
2021/08/09 12:48:23;;;;;;;;;43.80;37.60;;;;;29.45;77.10;100906.06;4933825;29;8857;-73
2021/08/09 12:51:20;;;;;;;;;49.00;41.40;;;;;29.54;77.31;100900.50;4934692;29;8849;-72
2021/08/09 12:54:15;;;;;;;;;49.40;41.80;;;;;29.57;78.18;100901.63;4934036;29;8825;-73
2021/08/09 12:57:12;;;;;;;;;47.00;40.60;;;;;29.54;78.33;100903.34;4922122;29;8857;-73
2021/08/09 13:00:09;;;;;;;;;48.60;41.60;;;;;29.35;80.29;100907.97;4930657;29;8963;-72
2021/08/09 13:03:04;;;;;;;;;50.20;42.20;;;;;29.10;79.31;100913.66;4929619;29;8976;-73
2021/08/09 13:06:04;;;;;;;;;54.40;45.40;;;;;29.14;79.64;100919.25;4928791;29;9613;-74
2021/08/09 13:09:01;;;;;;;;;50.00;42.40;;;;;29.07;78.48;100923.13;4928869;29;9568;-73
2021/08/09 13:11:28;;;;;;;;;52.20;43.80;;;;;29.20;77.89;100920.28;4935084;29;8878;-74
2021/08/09 13:14:24;;;;;;;;;48.20;41.00;;;;;29.40;75.38;100920.06;4928906;29;8872;-74
2021/08/09 13:17:20;;;;;;;;;49.60;41.40;;;;;29.39;77.74;100921.31;4930471;29;8961;-74
2021/08/09 13:20:16;;;;;;;;;54.40;44.80;;;;;29.24;79.45;100912.44;4928714;29;8854;-74
2021/08/09 13:23:11;;;;;;;;;54.00;44.80;;;;;29.22;79.63;100910.03;4934801;29;8839;-74
2021/08/09 13:26:07;;;;;;;;;51.20;43.20;;;;;29.21;80.92;100899.09;4933202;29;8883;-76